sensor_id;sensor_type;location;lat;lon;timestamp;P1;durP1;ratioP1;P2;durP2;ratioP2
54201;SDS011;40108;53.152;5.844;2022-10-17T00:00:46;13.45;;;2.10;;
54201;SDS011;40108;53.152;5.844;2022-10-17T00:03:12;12.18;;;2.58;;
54201;SDS011;40108;53.152;5.844;2022-10-17T00:05:42;15.68;;;3.25;;
54201;SDS011;40108;53.152;5.844;2022-10-17T00:08:10;15.52;;;2.95;;
54201;SDS011;40108;53.152;5.844;2022-10-17T00:10:40;11.88;;;2.60;;
54201;SDS011;40108;53.152;5.844;2022-10-17T00:13:06;5.95;;;2.25;;
54201;SDS011;40108;53.152;5.844;2022-10-17T00:15:34;15.35;;;2.85;;
54201;SDS011;40108;53.152;5.844;2022-10-17T00:18:00;11.27;;;2.78;;
54201;SDS011;40108;53.152;5.844;2022-10-17T00:20:27;11.65;;;2.50;;
54201;SDS011;40108;53.152;5.844;2022-10-17T00:22:54;11.77;;;2.30;;
54201;SDS011;40108;53.152;5.844;2022-10-17T00:25:21;10.35;;;2.70;;
54201;SDS011;40108;53.152;5.844;2022-10-17T00:27:46;11.35;;;3.10;;
54201;SDS011;40108;53.152;5.844;2022-10-17T00:30:13;15.55;;;3.25;;
54201;SDS011;40108;53.152;5.844;2022-10-17T00:32:40;11.25;;;3.08;;
54201;SDS011;40108;53.152;5.844;2022-10-17T00:35:06;10.05;;;3.30;;
54201;SDS011;40108;53.152;5.844;2022-10-17T00:37:33;15.40;;;3.70;;
54201;SDS011;40108;53.152;5.844;2022-10-17T00:39:59;14.45;;;3.45;;
54201;SDS011;40108;53.152;5.844;2022-10-17T00:42:25;11.15;;;2.90;;
54201;SDS011;40108;53.152;5.844;2022-10-17T00:45:26;10.40;;;3.10;;
54201;SDS011;40108;53.152;5.844;2022-10-17T00:48:04;6.00;;;2.40;;
54201;SDS011;40108;53.152;5.844;2022-10-17T00:50:32;8.02;;;2.47;;
54201;SDS011;40108;53.152;5.844;2022-10-17T00:53:01;14.13;;;2.85;;
54201;SDS011;40108;53.152;5.844;2022-10-17T00:55:30;17.08;;;2.97;;
54201;SDS011;40108;53.152;5.844;2022-10-17T00:57:57;12.43;;;3.28;;
54201;SDS011;40108;53.152;5.844;2022-10-17T01:00:26;11.52;;;3.58;;
54201;SDS011;40108;53.152;5.844;2022-10-17T01:02:51;10.18;;;3.65;;
54201;SDS011;40108;53.152;5.844;2022-10-17T01:05:17;19.45;;;4.60;;
54201;SDS011;40108;53.152;5.844;2022-10-17T01:07:43;12.02;;;3.88;;
54201;SDS011;40108;53.152;5.844;2022-10-17T01:10:11;11.02;;;3.90;;
54201;SDS011;40108;53.152;5.844;2022-10-17T01:12:59;8.27;;;3.38;;
54201;SDS011;40108;53.152;5.844;2022-10-17T01:18:55;10.20;;;3.95;;
54201;SDS011;40108;53.152;5.844;2022-10-17T01:34:53;12.98;;;3.80;;
54201;SDS011;40108;53.152;5.844;2022-10-17T01:37:28;9.60;;;3.95;;
54201;SDS011;40108;53.152;5.844;2022-10-17T01:45:24;11.43;;;4.50;;
54201;SDS011;40108;53.152;5.844;2022-10-17T01:47:55;13.38;;;4.70;;
54201;SDS011;40108;53.152;5.844;2022-10-17T01:50:30;12.25;;;4.70;;
54201;SDS011;40108;53.152;5.844;2022-10-17T01:53:07;11.70;;;4.95;;
54201;SDS011;40108;53.152;5.844;2022-10-17T01:55:40;11.73;;;5.03;;
54201;SDS011;40108;53.152;5.844;2022-10-17T01:58:11;8.85;;;4.53;;
54201;SDS011;40108;53.152;5.844;2022-10-17T02:00:39;15.55;;;5.60;;
54201;SDS011;40108;53.152;5.844;2022-10-17T02:03:08;12.23;;;5.00;;
54201;SDS011;40108;53.152;5.844;2022-10-17T02:05:38;12.55;;;5.10;;
54201;SDS011;40108;53.152;5.844;2022-10-17T02:08:06;11.23;;;5.60;;
54201;SDS011;40108;53.152;5.844;2022-10-17T02:10:38;9.98;;;5.20;;
54201;SDS011;40108;53.152;5.844;2022-10-17T02:19:06;11.57;;;5.68;;
54201;SDS011;40108;53.152;5.844;2022-10-17T02:22:13;10.70;;;5.60;;
54201;SDS011;40108;53.152;5.844;2022-10-17T02:27:19;12.50;;;5.50;;
54201;SDS011;40108;53.152;5.844;2022-10-17T02:29:59;14.88;;;6.38;;
54201;SDS011;40108;53.152;5.844;2022-10-17T02:35:12;10.63;;;5.82;;
54201;SDS011;40108;53.152;5.844;2022-10-17T02:37:39;10.32;;;6.32;;
54201;SDS011;40108;53.152;5.844;2022-10-17T02:40:08;9.88;;;6.00;;
54201;SDS011;40108;53.152;5.844;2022-10-17T02:42:36;13.73;;;6.50;;
54201;SDS011;40108;53.152;5.844;2022-10-17T02:45:03;13.68;;;6.10;;
54201;SDS011;40108;53.152;5.844;2022-10-17T02:50:08;14.70;;;7.10;;
54201;SDS011;40108;53.152;5.844;2022-10-17T02:52:36;11.90;;;6.88;;
54201;SDS011;40108;53.152;5.844;2022-10-17T02:55:17;13.80;;;7.40;;
54201;SDS011;40108;53.152;5.844;2022-10-17T02:58:08;14.15;;;8.10;;
54201;SDS011;40108;53.152;5.844;2022-10-17T03:00:40;10.10;;;7.72;;
54201;SDS011;40108;53.152;5.844;2022-10-17T03:03:20;13.45;;;7.57;;
54201;SDS011;40108;53.152;5.844;2022-10-17T03:05:48;15.32;;;8.65;;
54201;SDS011;40108;53.152;5.844;2022-10-17T03:08:14;12.98;;;8.60;;
54201;SDS011;40108;53.152;5.844;2022-10-17T03:10:40;13.15;;;9.10;;
54201;SDS011;40108;53.152;5.844;2022-10-17T03:13:05;14.43;;;9.48;;
54201;SDS011;40108;53.152;5.844;2022-10-17T03:15:31;14.15;;;9.30;;
54201;SDS011;40108;53.152;5.844;2022-10-17T03:17:57;16.58;;;10.23;;
54201;SDS011;40108;53.152;5.844;2022-10-17T03:20:22;17.23;;;9.90;;
54201;SDS011;40108;53.152;5.844;2022-10-17T03:22:48;18.15;;;9.85;;
54201;SDS011;40108;53.152;5.844;2022-10-17T03:25:14;12.85;;;9.27;;
54201;SDS011;40108;53.152;5.844;2022-10-17T03:27:39;15.98;;;10.98;;
54201;SDS011;40108;53.152;5.844;2022-10-17T03:30:05;15.77;;;10.18;;
54201;SDS011;40108;53.152;5.844;2022-10-17T03:32:32;13.65;;;10.35;;
54201;SDS011;40108;53.152;5.844;2022-10-17T03:34:58;13.55;;;10.57;;
54201;SDS011;40108;53.152;5.844;2022-10-17T03:37:24;15.48;;;11.13;;
54201;SDS011;40108;53.152;5.844;2022-10-17T03:39:49;15.07;;;11.50;;
54201;SDS011;40108;53.152;5.844;2022-10-17T03:42:15;15.35;;;11.02;;
54201;SDS011;40108;53.152;5.844;2022-10-17T03:44:41;17.58;;;12.10;;
54201;SDS011;40108;53.152;5.844;2022-10-17T03:47:06;20.65;;;12.35;;
54201;SDS011;40108;53.152;5.844;2022-10-17T03:49:32;19.60;;;12.93;;
54201;SDS011;40108;53.152;5.844;2022-10-17T03:51:58;17.88;;;13.05;;
54201;SDS011;40108;53.152;5.844;2022-10-17T03:54:23;16.58;;;13.27;;
54201;SDS011;40108;53.152;5.844;2022-10-17T03:56:49;19.92;;;13.23;;
54201;SDS011;40108;53.152;5.844;2022-10-17T03:59:15;19.48;;;14.20;;
54201;SDS011;40108;53.152;5.844;2022-10-17T04:01:41;22.48;;;14.40;;
54201;SDS011;40108;53.152;5.844;2022-10-17T04:04:07;20.55;;;14.32;;
54201;SDS011;40108;53.152;5.844;2022-10-17T04:06:33;22.33;;;15.23;;
54201;SDS011;40108;53.152;5.844;2022-10-17T04:08:59;18.65;;;16.65;;
54201;SDS011;40108;53.152;5.844;2022-10-17T04:11:25;17.77;;;15.60;;
54201;SDS011;40108;53.152;5.844;2022-10-17T04:13:52;19.98;;;16.05;;
54201;SDS011;40108;53.152;5.844;2022-10-17T04:16:19;23.92;;;17.40;;
54201;SDS011;40108;53.152;5.844;2022-10-17T04:18:45;19.70;;;16.73;;
54201;SDS011;40108;53.152;5.844;2022-10-17T04:21:11;25.52;;;17.33;;
54201;SDS011;40108;53.152;5.844;2022-10-17T04:23:38;24.35;;;18.45;;
54201;SDS011;40108;53.152;5.844;2022-10-17T04:26:05;23.08;;;17.95;;
54201;SDS011;40108;53.152;5.844;2022-10-17T04:28:31;24.50;;;18.17;;
54201;SDS011;40108;53.152;5.844;2022-10-17T04:31:01;20.15;;;17.85;;
54201;SDS011;40108;53.152;5.844;2022-10-17T04:33:29;20.30;;;16.98;;
54201;SDS011;40108;53.152;5.844;2022-10-17T04:35:56;19.92;;;16.40;;
54201;SDS011;40108;53.152;5.844;2022-10-17T04:38:33;22.70;;;17.88;;
54201;SDS011;40108;53.152;5.844;2022-10-17T04:40:59;25.13;;;18.83;;
54201;SDS011;40108;53.152;5.844;2022-10-17T04:43:27;28.27;;;19.17;;
54201;SDS011;40108;53.152;5.844;2022-10-17T04:45:56;22.10;;;19.20;;
54201;SDS011;40108;53.152;5.844;2022-10-17T04:48:22;25.02;;;18.58;;
54201;SDS011;40108;53.152;5.844;2022-10-17T04:50:55;24.35;;;20.15;;
54201;SDS011;40108;53.152;5.844;2022-10-17T04:53:22;23.77;;;18.95;;
54201;SDS011;40108;53.152;5.844;2022-10-17T04:55:49;28.40;;;19.85;;
54201;SDS011;40108;53.152;5.844;2022-10-17T04:58:15;30.48;;;19.60;;
54201;SDS011;40108;53.152;5.844;2022-10-17T05:00:41;26.63;;;18.83;;
54201;SDS011;40108;53.152;5.844;2022-10-17T05:03:07;23.95;;;20.20;;
54201;SDS011;40108;53.152;5.844;2022-10-17T05:05:35;23.70;;;20.13;;
54201;SDS011;40108;53.152;5.844;2022-10-17T05:08:02;24.40;;;18.30;;
54201;SDS011;40108;53.152;5.844;2022-10-17T05:10:29;23.50;;;18.85;;
54201;SDS011;40108;53.152;5.844;2022-10-17T05:12:55;24.65;;;18.60;;
54201;SDS011;40108;53.152;5.844;2022-10-17T05:15:20;26.75;;;19.95;;
54201;SDS011;40108;53.152;5.844;2022-10-17T05:17:46;22.83;;;18.95;;
54201;SDS011;40108;53.152;5.844;2022-10-17T05:20:12;28.60;;;19.67;;
54201;SDS011;40108;53.152;5.844;2022-10-17T05:22:37;24.55;;;18.38;;
54201;SDS011;40108;53.152;5.844;2022-10-17T05:25:03;25.00;;;19.83;;
54201;SDS011;40108;53.152;5.844;2022-10-17T05:27:29;23.25;;;19.23;;
54201;SDS011;40108;53.152;5.844;2022-10-17T05:29:56;23.40;;;17.60;;
54201;SDS011;40108;53.152;5.844;2022-10-17T05:32:21;22.95;;;18.52;;
54201;SDS011;40108;53.152;5.844;2022-10-17T05:34:47;23.95;;;18.05;;
54201;SDS011;40108;53.152;5.844;2022-10-17T05:37:13;25.05;;;18.08;;
54201;SDS011;40108;53.152;5.844;2022-10-17T05:39:38;29.17;;;17.20;;
54201;SDS011;40108;53.152;5.844;2022-10-17T05:42:04;21.98;;;17.67;;
54201;SDS011;40108;53.152;5.844;2022-10-17T05:44:31;28.10;;;17.10;;
54201;SDS011;40108;53.152;5.844;2022-10-17T05:46:57;22.75;;;16.42;;
54201;SDS011;40108;53.152;5.844;2022-10-17T05:49:23;22.23;;;17.35;;
54201;SDS011;40108;53.152;5.844;2022-10-17T05:51:49;22.25;;;16.20;;
54201;SDS011;40108;53.152;5.844;2022-10-17T05:54:14;19.52;;;15.95;;
54201;SDS011;40108;53.152;5.844;2022-10-17T05:56:40;20.13;;;15.45;;
54201;SDS011;40108;53.152;5.844;2022-10-17T05:59:06;23.80;;;15.90;;
54201;SDS011;40108;53.152;5.844;2022-10-17T06:01:31;26.20;;;16.65;;
54201;SDS011;40108;53.152;5.844;2022-10-17T06:03:57;21.80;;;17.50;;
54201;SDS011;40108;53.152;5.844;2022-10-17T06:06:23;23.02;;;15.70;;
54201;SDS011;40108;53.152;5.844;2022-10-17T06:08:48;20.48;;;15.82;;
54201;SDS011;40108;53.152;5.844;2022-10-17T06:11:14;20.23;;;16.02;;
54201;SDS011;40108;53.152;5.844;2022-10-17T06:13:40;20.23;;;15.82;;
54201;SDS011;40108;53.152;5.844;2022-10-17T06:16:06;20.48;;;15.23;;
54201;SDS011;40108;53.152;5.844;2022-10-17T06:18:32;20.40;;;14.90;;
54201;SDS011;40108;53.152;5.844;2022-10-17T06:21:01;19.00;;;15.27;;
54201;SDS011;40108;53.152;5.844;2022-10-17T06:23:28;21.23;;;14.20;;
54201;SDS011;40108;53.152;5.844;2022-10-17T06:25:57;21.55;;;15.52;;
54201;SDS011;40108;53.152;5.844;2022-10-17T06:28:26;19.55;;;14.32;;
54201;SDS011;40108;53.152;5.844;2022-10-17T06:30:52;17.88;;;14.95;;
54201;SDS011;40108;53.152;5.844;2022-10-17T06:33:18;22.45;;;15.15;;
54201;SDS011;40108;53.152;5.844;2022-10-17T06:35:50;16.20;;;13.95;;
54201;SDS011;40108;53.152;5.844;2022-10-17T06:38:19;16.48;;;13.90;;
54201;SDS011;40108;53.152;5.844;2022-10-17T06:40:46;20.50;;;14.13;;
54201;SDS011;40108;53.152;5.844;2022-10-17T06:43:11;19.27;;;13.23;;
54201;SDS011;40108;53.152;5.844;2022-10-17T06:45:38;19.52;;;14.18;;
54201;SDS011;40108;53.152;5.844;2022-10-17T06:48:04;18.17;;;14.10;;
54201;SDS011;40108;53.152;5.844;2022-10-17T06:50:30;17.05;;;14.43;;
54201;SDS011;40108;53.152;5.844;2022-10-17T06:52:56;18.15;;;14.50;;
54201;SDS011;40108;53.152;5.844;2022-10-17T06:55:22;16.27;;;13.27;;
54201;SDS011;40108;53.152;5.844;2022-10-17T06:57:47;18.13;;;14.00;;
54201;SDS011;40108;53.152;5.844;2022-10-17T07:00:13;18.05;;;13.38;;
54201;SDS011;40108;53.152;5.844;2022-10-17T07:02:41;13.90;;;12.05;;
54201;SDS011;40108;53.152;5.844;2022-10-17T07:05:07;18.75;;;12.40;;
54201;SDS011;40108;53.152;5.844;2022-10-17T07:07:33;17.08;;;12.45;;
54201;SDS011;40108;53.152;5.844;2022-10-17T07:09:59;15.48;;;13.68;;
54201;SDS011;40108;53.152;5.844;2022-10-17T07:12:25;17.83;;;12.63;;
54201;SDS011;40108;53.152;5.844;2022-10-17T07:14:51;19.27;;;13.60;;
54201;SDS011;40108;53.152;5.844;2022-10-17T07:17:17;13.95;;;12.07;;
54201;SDS011;40108;53.152;5.844;2022-10-17T07:19:43;13.57;;;12.05;;
54201;SDS011;40108;53.152;5.844;2022-10-17T07:22:09;17.92;;;12.05;;
54201;SDS011;40108;53.152;5.844;2022-10-17T07:24:36;14.85;;;12.10;;
54201;SDS011;40108;53.152;5.844;2022-10-17T07:27:01;14.13;;;12.18;;
54201;SDS011;40108;53.152;5.844;2022-10-17T07:29:27;16.02;;;11.30;;
54201;SDS011;40108;53.152;5.844;2022-10-17T07:31:53;15.38;;;11.07;;
54201;SDS011;40108;53.152;5.844;2022-10-17T07:34:19;16.20;;;12.00;;
54201;SDS011;40108;53.152;5.844;2022-10-17T07:36:45;15.00;;;11.88;;
54201;SDS011;40108;53.152;5.844;2022-10-17T07:39:10;16.63;;;12.15;;
54201;SDS011;40108;53.152;5.844;2022-10-17T07:41:36;15.75;;;11.32;;
54201;SDS011;40108;53.152;5.844;2022-10-17T07:44:02;16.85;;;11.75;;
54201;SDS011;40108;53.152;5.844;2022-10-17T07:46:28;14.60;;;11.40;;
54201;SDS011;40108;53.152;5.844;2022-10-17T07:48:53;18.00;;;11.73;;
54201;SDS011;40108;53.152;5.844;2022-10-17T07:51:19;14.40;;;11.02;;
54201;SDS011;40108;53.152;5.844;2022-10-17T07:53:46;14.65;;;11.07;;
54201;SDS011;40108;53.152;5.844;2022-10-17T07:56:12;13.05;;;11.60;;
54201;SDS011;40108;53.152;5.844;2022-10-17T07:58:38;17.20;;;11.15;;
54201;SDS011;40108;53.152;5.844;2022-10-17T08:01:06;16.30;;;10.73;;
54201;SDS011;40108;53.152;5.844;2022-10-17T08:03:35;13.88;;;11.05;;
54201;SDS011;40108;53.152;5.844;2022-10-17T08:06:01;15.77;;;11.10;;
54201;SDS011;40108;53.152;5.844;2022-10-17T08:08:27;15.65;;;10.80;;
54201;SDS011;40108;53.152;5.844;2022-10-17T08:10:54;12.68;;;10.68;;
54201;SDS011;40108;53.152;5.844;2022-10-17T08:13:25;11.95;;;10.40;;
54201;SDS011;40108;53.152;5.844;2022-10-17T08:15:50;14.13;;;10.38;;
54201;SDS011;40108;53.152;5.844;2022-10-17T08:18:16;13.60;;;10.48;;
54201;SDS011;40108;53.152;5.844;2022-10-17T08:20:42;14.27;;;10.77;;
54201;SDS011;40108;53.152;5.844;2022-10-17T08:23:08;14.18;;;10.32;;
54201;SDS011;40108;53.152;5.844;2022-10-17T08:25:36;13.45;;;9.50;;
54201;SDS011;40108;53.152;5.844;2022-10-17T08:28:04;12.65;;;10.13;;
54201;SDS011;40108;53.152;5.844;2022-10-17T08:30:30;16.38;;;10.32;;
54201;SDS011;40108;53.152;5.844;2022-10-17T08:32:56;19.65;;;10.93;;
54201;SDS011;40108;53.152;5.844;2022-10-17T08:35:22;14.35;;;10.43;;
54201;SDS011;40108;53.152;5.844;2022-10-17T08:37:48;11.98;;;10.50;;
54201;SDS011;40108;53.152;5.844;2022-10-17T08:40:18;19.17;;;11.27;;
54201;SDS011;40108;53.152;5.844;2022-10-17T08:45:38;12.55;;;10.45;;
54201;SDS011;40108;53.152;5.844;2022-10-17T08:48:15;17.25;;;11.48;;
54201;SDS011;40108;53.152;5.844;2022-10-17T08:50:48;15.27;;;9.90;;
54201;SDS011;40108;53.152;5.844;2022-10-17T08:56:06;16.63;;;9.63;;
54201;SDS011;40108;53.152;5.844;2022-10-17T08:58:40;12.73;;;9.07;;
54201;SDS011;40108;53.152;5.844;2022-10-17T09:04:17;15.02;;;9.45;;
54201;SDS011;40108;53.152;5.844;2022-10-17T09:06:52;12.52;;;10.68;;
54201;SDS011;40108;53.152;5.844;2022-10-17T09:09:36;12.95;;;9.43;;
54201;SDS011;40108;53.152;5.844;2022-10-17T09:17:50;14.27;;;10.50;;
54201;SDS011;40108;53.152;5.844;2022-10-17T09:20:21;11.98;;;10.07;;
54201;SDS011;40108;53.152;5.844;2022-10-17T09:25:26;12.48;;;9.38;;
54201;SDS011;40108;53.152;5.844;2022-10-17T09:28:05;13.38;;;9.70;;
54201;SDS011;40108;53.152;5.844;2022-10-17T09:30:53;15.18;;;8.65;;
54201;SDS011;40108;53.152;5.844;2022-10-17T09:33:39;17.55;;;10.98;;
54201;SDS011;40108;53.152;5.844;2022-10-17T09:36:09;18.17;;;10.48;;
54201;SDS011;40108;53.152;5.844;2022-10-17T09:38:40;13.52;;;11.13;;
54201;SDS011;40108;53.152;5.844;2022-10-17T09:41:15;15.93;;;11.17;;
54201;SDS011;40108;53.152;5.844;2022-10-17T09:43:45;18.23;;;11.20;;
54201;SDS011;40108;53.152;5.844;2022-10-17T09:46:34;16.40;;;10.55;;
54201;SDS011;40108;53.152;5.844;2022-10-17T09:49:02;15.68;;;10.98;;
54201;SDS011;40108;53.152;5.844;2022-10-17T09:51:33;18.85;;;11.32;;
54201;SDS011;40108;53.152;5.844;2022-10-17T09:54:02;18.20;;;11.68;;
54201;SDS011;40108;53.152;5.844;2022-10-17T09:56:55;15.73;;;10.82;;
54201;SDS011;40108;53.152;5.844;2022-10-17T09:59:40;16.77;;;12.50;;
54201;SDS011;40108;53.152;5.844;2022-10-17T10:04:50;16.27;;;10.95;;
54201;SDS011;40108;53.152;5.844;2022-10-17T10:07:25;14.38;;;11.65;;
54201;SDS011;40108;53.152;5.844;2022-10-17T10:09:53;16.42;;;11.98;;
54201;SDS011;40108;53.152;5.844;2022-10-17T10:12:21;15.63;;;12.30;;
54201;SDS011;40108;53.152;5.844;2022-10-17T10:14:49;16.60;;;11.95;;
54201;SDS011;40108;53.152;5.844;2022-10-17T10:20:39;16.60;;;12.35;;
54201;SDS011;40108;53.152;5.844;2022-10-17T10:25:54;16.23;;;12.98;;
54201;SDS011;40108;53.152;5.844;2022-10-17T10:28:23;18.38;;;13.98;;
54201;SDS011;40108;53.152;5.844;2022-10-17T10:30:52;18.95;;;13.35;;
54201;SDS011;40108;53.152;5.844;2022-10-17T10:33:20;18.13;;;13.52;;
54201;SDS011;40108;53.152;5.844;2022-10-17T10:36:01;18.75;;;12.43;;
54201;SDS011;40108;53.152;5.844;2022-10-17T10:38:29;20.42;;;12.82;;
54201;SDS011;40108;53.152;5.844;2022-10-17T10:41:06;20.25;;;12.75;;
54201;SDS011;40108;53.152;5.844;2022-10-17T10:43:38;23.58;;;13.50;;
54201;SDS011;40108;53.152;5.844;2022-10-17T10:46:24;19.33;;;13.98;;
54201;SDS011;40108;53.152;5.844;2022-10-17T10:48:58;23.38;;;14.40;;
54201;SDS011;40108;53.152;5.844;2022-10-17T10:51:39;18.90;;;13.88;;
54201;SDS011;40108;53.152;5.844;2022-10-17T10:56:50;22.52;;;14.05;;
54201;SDS011;40108;53.152;5.844;2022-10-17T11:09:55;18.73;;;13.35;;
54201;SDS011;40108;53.152;5.844;2022-10-17T11:17:59;17.70;;;11.75;;
54201;SDS011;40108;53.152;5.844;2022-10-17T11:23:29;17.92;;;11.63;;
54201;SDS011;40108;53.152;5.844;2022-10-17T11:26:27;13.30;;;10.63;;
54201;SDS011;40108;53.152;5.844;2022-10-17T11:28:56;16.63;;;12.13;;
54201;SDS011;40108;53.152;5.844;2022-10-17T11:31:25;20.23;;;12.45;;
54201;SDS011;40108;53.152;5.844;2022-10-17T11:34:00;21.13;;;12.18;;
54201;SDS011;40108;53.152;5.844;2022-10-17T11:36:31;17.45;;;12.80;;
54201;SDS011;40108;53.152;5.844;2022-10-17T11:39:02;18.48;;;12.15;;
54201;SDS011;40108;53.152;5.844;2022-10-17T11:41:42;17.92;;;12.93;;
54201;SDS011;40108;53.152;5.844;2022-10-17T11:50:02;15.40;;;10.98;;
54201;SDS011;40108;53.152;5.844;2022-10-17T11:55:12;15.85;;;11.23;;
54201;SDS011;40108;53.152;5.844;2022-10-17T11:57:50;17.52;;;11.40;;
54201;SDS011;40108;53.152;5.844;2022-10-17T12:13:53;12.93;;;8.60;;
54201;SDS011;40108;53.152;5.844;2022-10-17T12:18:48;13.52;;;8.90;;
54201;SDS011;40108;53.152;5.844;2022-10-17T12:21:27;13.05;;;7.97;;
54201;SDS011;40108;53.152;5.844;2022-10-17T12:24:19;11.55;;;8.02;;
54201;SDS011;40108;53.152;5.844;2022-10-17T12:27:31;13.60;;;8.02;;
54201;SDS011;40108;53.152;5.844;2022-10-17T12:32:54;14.40;;;8.25;;
54201;SDS011;40108;53.152;5.844;2022-10-17T12:35:26;14.80;;;8.30;;
54201;SDS011;40108;53.152;5.844;2022-10-17T12:43:00;14.48;;;8.30;;
54201;SDS011;40108;53.152;5.844;2022-10-17T12:51:16;11.40;;;7.30;;
54201;SDS011;40108;53.152;5.844;2022-10-17T12:53:53;10.85;;;7.07;;
54201;SDS011;40108;53.152;5.844;2022-10-17T12:56:30;12.48;;;6.60;;
54201;SDS011;40108;53.152;5.844;2022-10-17T12:59:07;11.98;;;6.40;;
54201;SDS011;40108;53.152;5.844;2022-10-17T13:01:55;13.27;;;6.13;;
54201;SDS011;40108;53.152;5.844;2022-10-17T13:04:24;13.07;;;6.35;;
54201;SDS011;40108;53.152;5.844;2022-10-17T13:06:51;12.02;;;5.97;;
54201;SDS011;40108;53.152;5.844;2022-10-17T13:09:22;13.85;;;5.55;;
54201;SDS011;40108;53.152;5.844;2022-10-17T13:11:51;8.25;;;5.20;;
54201;SDS011;40108;53.152;5.844;2022-10-17T13:14:20;8.80;;;5.03;;
54201;SDS011;40108;53.152;5.844;2022-10-17T13:16:55;12.98;;;5.60;;
54201;SDS011;40108;53.152;5.844;2022-10-17T13:19:30;10.20;;;4.55;;
54201;SDS011;40108;53.152;5.844;2022-10-17T13:22:09;10.48;;;5.47;;
54201;SDS011;40108;53.152;5.844;2022-10-17T13:24:43;10.23;;;4.95;;
54201;SDS011;40108;53.152;5.844;2022-10-17T13:27:24;11.52;;;4.80;;
54201;SDS011;40108;53.152;5.844;2022-10-17T13:29:57;9.90;;;5.28;;
54201;SDS011;40108;53.152;5.844;2022-10-17T13:32:33;9.07;;;4.25;;
54201;SDS011;40108;53.152;5.844;2022-10-17T13:35:43;11.07;;;4.85;;
54201;SDS011;40108;53.152;5.844;2022-10-17T13:37:52;13.15;;;4.85;;
54201;SDS011;40108;53.152;5.844;2022-10-17T13:40:21;20.05;;;4.90;;
54201;SDS011;40108;53.152;5.844;2022-10-17T13:42:49;8.93;;;4.28;;
54201;SDS011;40108;53.152;5.844;2022-10-17T13:45:26;13.20;;;4.00;;
54201;SDS011;40108;53.152;5.844;2022-10-17T13:47:53;8.55;;;4.53;;
54201;SDS011;40108;53.152;5.844;2022-10-17T13:50:32;9.05;;;4.88;;
54201;SDS011;40108;53.152;5.844;2022-10-17T13:53:24;9.68;;;4.05;;
54201;SDS011;40108;53.152;5.844;2022-10-17T13:56:01;8.15;;;4.00;;
54201;SDS011;40108;53.152;5.844;2022-10-17T13:58:30;6.82;;;3.97;;
54201;SDS011;40108;53.152;5.844;2022-10-17T14:01:04;6.50;;;3.42;;
54201;SDS011;40108;53.152;5.844;2022-10-17T14:03:30;7.78;;;3.65;;
54201;SDS011;40108;53.152;5.844;2022-10-17T14:08:50;7.85;;;3.40;;
54201;SDS011;40108;53.152;5.844;2022-10-17T14:11:23;6.93;;;3.22;;
54201;SDS011;40108;53.152;5.844;2022-10-17T14:13:53;8.95;;;3.95;;
54201;SDS011;40108;53.152;5.844;2022-10-17T14:16:20;7.97;;;3.65;;
54201;SDS011;40108;53.152;5.844;2022-10-17T14:18:48;8.57;;;3.28;;
54201;SDS011;40108;53.152;5.844;2022-10-17T14:21:19;7.75;;;3.72;;
54201;SDS011;40108;53.152;5.844;2022-10-17T14:23:46;5.68;;;3.35;;
54201;SDS011;40108;53.152;5.844;2022-10-17T14:28:41;4.05;;;3.13;;
54201;SDS011;40108;53.152;5.844;2022-10-17T14:31:16;6.38;;;3.60;;
54201;SDS011;40108;53.152;5.844;2022-10-17T14:33:50;8.80;;;3.78;;
54201;SDS011;40108;53.152;5.844;2022-10-17T14:36:17;6.38;;;3.92;;
54201;SDS011;40108;53.152;5.844;2022-10-17T14:38:45;8.00;;;3.15;;
54201;SDS011;40108;53.152;5.844;2022-10-17T14:41:18;8.32;;;3.78;;
54201;SDS011;40108;53.152;5.844;2022-10-17T14:44:00;7.63;;;3.80;;
54201;SDS011;40108;53.152;5.844;2022-10-17T14:46:31;9.82;;;3.70;;
54201;SDS011;40108;53.152;5.844;2022-10-17T14:49:05;12.95;;;4.45;;
54201;SDS011;40108;53.152;5.844;2022-10-17T14:51:39;10.30;;;3.92;;
54201;SDS011;40108;53.152;5.844;2022-10-17T14:54:22;7.95;;;3.83;;
54201;SDS011;40108;53.152;5.844;2022-10-17T14:56:51;7.45;;;3.60;;
54201;SDS011;40108;53.152;5.844;2022-10-17T14:59:18;6.60;;;3.28;;
54201;SDS011;40108;53.152;5.844;2022-10-17T15:01:48;7.85;;;3.70;;
54201;SDS011;40108;53.152;5.844;2022-10-17T15:04:14;7.53;;;3.80;;
54201;SDS011;40108;53.152;5.844;2022-10-17T15:06:41;10.85;;;4.07;;
54201;SDS011;40108;53.152;5.844;2022-10-17T15:09:08;6.75;;;3.60;;
54201;SDS011;40108;53.152;5.844;2022-10-17T15:11:35;5.50;;;3.40;;
54201;SDS011;40108;53.152;5.844;2022-10-17T15:14:00;9.95;;;3.60;;
54201;SDS011;40108;53.152;5.844;2022-10-17T15:16:29;8.50;;;4.10;;
54201;SDS011;40108;53.152;5.844;2022-10-17T15:18:56;6.47;;;3.42;;
54201;SDS011;40108;53.152;5.844;2022-10-17T15:21:22;8.30;;;3.78;;
54201;SDS011;40108;53.152;5.844;2022-10-17T15:23:51;7.97;;;3.63;;
54201;SDS011;40108;53.152;5.844;2022-10-17T15:26:20;8.15;;;4.00;;
54201;SDS011;40108;53.152;5.844;2022-10-17T15:28:49;6.28;;;3.47;;
54201;SDS011;40108;53.152;5.844;2022-10-17T15:31:16;8.70;;;3.83;;
54201;SDS011;40108;53.152;5.844;2022-10-17T15:33:44;8.13;;;3.45;;
54201;SDS011;40108;53.152;5.844;2022-10-17T15:36:37;9.40;;;3.90;;
54201;SDS011;40108;53.152;5.844;2022-10-17T15:39:04;10.13;;;5.40;;
54201;SDS011;40108;53.152;5.844;2022-10-17T15:41:31;10.18;;;4.93;;
54201;SDS011;40108;53.152;5.844;2022-10-17T15:43:57;11.18;;;4.55;;
54201;SDS011;40108;53.152;5.844;2022-10-17T15:46:23;7.90;;;3.50;;
54201;SDS011;40108;53.152;5.844;2022-10-17T15:48:54;8.32;;;3.70;;
54201;SDS011;40108;53.152;5.844;2022-10-17T15:51:21;8.65;;;3.90;;
54201;SDS011;40108;53.152;5.844;2022-10-17T15:53:47;7.53;;;3.75;;
54201;SDS011;40108;53.152;5.844;2022-10-17T15:56:21;11.02;;;3.58;;
54201;SDS011;40108;53.152;5.844;2022-10-17T15:58:48;10.60;;;4.20;;
54201;SDS011;40108;53.152;5.844;2022-10-17T16:01:19;7.78;;;3.80;;
54201;SDS011;40108;53.152;5.844;2022-10-17T16:03:51;7.00;;;3.78;;
54201;SDS011;40108;53.152;5.844;2022-10-17T16:06:17;9.27;;;3.35;;
54201;SDS011;40108;53.152;5.844;2022-10-17T16:08:47;6.53;;;3.75;;
54201;SDS011;40108;53.152;5.844;2022-10-17T16:11:36;7.45;;;3.35;;
54201;SDS011;40108;53.152;5.844;2022-10-17T16:14:03;7.47;;;4.28;;
54201;SDS011;40108;53.152;5.844;2022-10-17T16:16:31;10.32;;;3.95;;
54201;SDS011;40108;53.152;5.844;2022-10-17T16:18:57;8.10;;;3.80;;
54201;SDS011;40108;53.152;5.844;2022-10-17T16:21:27;9.07;;;4.20;;
54201;SDS011;40108;53.152;5.844;2022-10-17T16:23:56;8.18;;;4.00;;
54201;SDS011;40108;53.152;5.844;2022-10-17T16:26:23;8.95;;;4.80;;
54201;SDS011;40108;53.152;5.844;2022-10-17T16:28:48;7.78;;;4.80;;
54201;SDS011;40108;53.152;5.844;2022-10-17T16:31:24;11.13;;;5.30;;
54201;SDS011;40108;53.152;5.844;2022-10-17T16:33:54;8.43;;;4.57;;
54201;SDS011;40108;53.152;5.844;2022-10-17T16:36:21;13.90;;;5.45;;
54201;SDS011;40108;53.152;5.844;2022-10-17T16:38:47;12.95;;;6.45;;
54201;SDS011;40108;53.152;5.844;2022-10-17T16:43:55;12.50;;;5.15;;
54201;SDS011;40108;53.152;5.844;2022-10-17T16:46:22;9.27;;;5.10;;
54201;SDS011;40108;53.152;5.844;2022-10-17T16:48:49;11.10;;;4.60;;
54201;SDS011;40108;53.152;5.844;2022-10-17T16:51:15;9.88;;;4.25;;
54201;SDS011;40108;53.152;5.844;2022-10-17T16:53:43;9.25;;;4.63;;
54201;SDS011;40108;53.152;5.844;2022-10-17T16:56:11;5.47;;;4.10;;